This is the latest recevied weather packets stored in our database for station/object KJ4UBX-11. If no packets are shown the sender has not sent any weather packets the latest 10 day(s).
| Time | Temp. | Humidity | Pressure | Rain* | Wind** | Luminosity | Snow |
|---|---|---|---|---|---|---|---|
| 1777911977 | 23.33° C | 36% | 1003.8 hPa | - | - | - | - |
| 1777911397 | 24.44° C | 34% | 1004.1 hPa | - | - | - | - |
| 1777910815 | 27.22° C | 31% | 1004 hPa | - | - | - | - |
| 1777910236 | 28.33° C | 30% | 1004.1 hPa | - | - | - | - |
| 1777909666 | 33.33° C | 22% | 1004.2 hPa | - | - | - | - |
| 1777909086 | 36.67° C | 20% | 1004.4 hPa | - | - | - | - |
| 1777908505 | 41.11° C | 16% | 1004.6 hPa | - | - | - | - |
| 1777907923 | 39.44° C | 17% | 1004.7 hPa | - | - | - | - |
| 1777907336 | 39.44° C | 17% | 1004.9 hPa | - | - | - | - |
| 1777906748 | 36.67° C | 18% | 1005.1 hPa | - | - | - | - |
| 1777905576 | 34.44° C | 21% | 1005.3 hPa | - | - | - | - |
| 1777904985 | 29.44° C | 27% | 1005.4 hPa | - | - | - | - |
| 1777904397 | 28.89° C | 27% | 1005.5 hPa | - | - | - | - |
| 1777903812 | 28.33° C | 27% | 1005.8 hPa | - | - | - | - |
| 1777903232 | 30.56° C | 25% | 1005.9 hPa | - | - | - | - |
| 1777902643 | 28.33° C | 29% | 1006 hPa | - | - | - | - |
| 1777902048 | 24.44° C | 34% | 1006.4 hPa | - | - | - | - |
| 1777901465 | 23.89° C | 33% | 1006.4 hPa | - | - | - | - |
| 1777900887 | 25° C | 33% | 1006.5 hPa | - | - | - | - |
| 1777900301 | 25.56° C | 32% | 1006.5 hPa | - | - | - | - |
| 1777899723 | 27.78° C | 28% | 1006.6 hPa | - | - | - | - |
| 1777899136 | 27.22° C | 30% | 1006.7 hPa | - | - | - | - |
| 1777898544 | 23.33° C | 32% | 1006.8 hPa | - | - | - | - |
| 1777897957 | 22.22° C | 35% | 1007 hPa | - | - | - | - |
| 1777897377 | 25.56° C | 30% | 1007.1 hPa | - | - | - | - |
* Rain since midnight (hover to see other rain measurements)
** Current wind speed in m/s (hover to see current wind gust speed)